EW5546 Weather Reports


time (UTC)temp
C
wind
direction
speed
KPH
gust
KPH
rain 1hr
cm
rain 24hr
cm
rain mn
cm
humidity
%
barometer
mb
20200606184520 21 0.0 0.0 0.00 0.00 0.00 45 1005.9
20200606183520 21 0.0 0.0 0.00 0.00 0.00 45 1005.6
20200606182519 21 218 0.0 1.6 0.00 0.00 0.00 44 1005.6
20200606181517 21 203 0.0 1.6 0.00 0.00 0.00 44 1005.6
20200606180520 21 209 3.2 3.2 0.00 0.00 0.00 44 1005.6
20200606175521 21 210 1.6 4.8 0.00 0.00 0.00 44 1005.6
20200606174518 22 216 1.6 3.2 0.00 0.00 0.00 43 1005.6
20200606173520 22 203 0.0 1.6 0.00 0.00 0.00 43 1005.6
20200606172521 22 203 3.2 4.8 0.00 0.00 0.00 43 1005.6
20200606171515 22 277 1.6 3.2 0.00 0.00 0.00 43 1005.6
20200606170517 22 222 1.6 4.8 0.00 0.00 0.00 43 1005.6
20200606165519 22 0.0 0.0 0.00 0.00 0.00 43 1005.6
20200606164519 22 217 1.6 3.2 0.00 0.00 0.00 42 1005.6
20200606163519 22 212 1.6 3.2 0.00 0.00 0.00 42 1005.6
20200606162519 22 203 1.6 4.8 0.00 0.00 0.00 42 1005.6
20200606161519 22 232 1.6 4.8 0.00 0.00 0.00 42 1005.6
20200606160519 22 214 4.8 8.0 0.00 0.00 0.00 42 1005.6
20200606155516 22 203 1.6 3.2 0.00 0.00 0.00 41 1004.5
20200606154519 23 203 3.2 4.8 0.00 0.00 0.00 41 1004.5
20200606153520 22 220 3.2 6.4 0.00 0.00 0.00 41 1004.5
20200606152519 22 225 3.2 4.8 0.00 0.00 0.00 41 1004.5
20200606151520 23 207 6.4 9.7 0.00 0.00 0.00 41 1005.2
20200606150519 23 212 8.0 11.3 0.00 0.00 0.00 41 1005.6
20200606145519 23 207 3.2 8.0 0.00 0.00 0.00 41 1004.5
20200606144516 23 303 1.6 3.2 0.00 0.00 0.00 41 1004.5
20200606143538 23 250 3.2 6.4 0.00 0.00 0.00 41 1004.5
20200606142520 24 194 6.4 9.7 0.00 0.00 0.00 40 1004.5
20200606141520 24 203 4.8 4.8 0.00 0.00 0.00 40 1004.5
20200606140520 23 217 1.6 8.0 0.00 0.00 0.00 41 1004.5
20200606135519 24 213 3.2 4.8 0.00 0.00 0.00 41 1004.5
20200606134517 23 213 4.8 6.4 0.00 0.00 0.00 41 1004.5
20200606133517 22 201 4.8 6.4 0.00 0.00 0.00 42 1004.5
20200606132519 22 205 3.2 6.4 0.00 0.00 0.00 42 1005.6
20200606131519 23 207 6.4 9.7 0.00 0.00 0.00 41 1004.9
20200606130516 23 214 3.2 4.8 0.00 0.00 0.00 42 1004.5
20200606125519 23 234 3.2 8.0 0.00 0.00 0.00 42 1004.5
20200606124519 22 202 4.8 6.4 0.00 0.00 0.00 42 1004.5
20200606123515 22 177 3.2 4.8 0.00 0.00 0.00 43 1004.5
20200606122516 22 203 4.8 6.4 0.00 0.00 0.00 43 1004.5
20200606121525 22 222 6.4 9.7 0.00 0.00 0.00 43 1004.5
20200606120519 22 223 3.2 6.4 0.00 0.00 0.00 43 1004.5
20200606115520 22 211 4.8 6.4 0.00 0.00 0.00 43 1004.5
20200606114519 22 216 3.2 4.8 0.00 0.00 0.00 43 1004.5
20200606113516 22 216 8.0 9.7 0.00 0.00 0.00 43 1004.5
20200606112519 22 200 6.4 9.7 0.00 0.00 0.00 43 1004.5
20200606111516 22 260 1.6 3.2 0.00 0.00 0.00 43 1004.5
20200606110519 22 214 6.4 9.7 0.00 0.00 0.00 43 1004.5
20200606105520 22 208 4.8 8.0 0.00 0.00 0.00 43 1004.5
20200606104520 22 186 6.4 8.0 0.00 0.00 0.00 43 1004.5
20200606103519 21 208 6.4 6.4 0.00 0.00 0.00 44 1004.5
20200606102519 21 215 4.8 9.7 0.00 0.00 0.00 45 1004.5
20200606101519 21 209 6.4 9.7 0.00 0.00 0.00 44 1004.5
20200606100517 21 208 4.8 6.4 0.00 0.00 0.00 45 1004.5
20200606095519 21 198 4.8 8.0 0.00 0.00 0.00 46 1004.5
20200606094520 21 243 3.2 4.8 0.00 0.00 0.00 46 1004.5
20200606093519 21 253 3.2 6.4 0.00 0.00 0.00 48 1004.5
20200606092520 20 218 6.4 11.3 0.00 0.00 0.00 49 1004.5
20200606091519 20 212 4.8 8.0 0.00 0.00 0.00 50 1004.5
20200606090519 20 200 3.2 4.8 0.00 0.00 0.00 52 1004.5
20200606085519 20 219 4.8 6.4 0.00 0.00 0.00 52 1004.5
20200606084520 20 219 4.8 8.0 0.00 0.00 0.00 53 1003.9
20200606083519 19 213 3.2 4.8 0.00 0.00 0.00 55 1003.5
20200606082519 18 212 4.8 6.4 0.00 0.00 0.00 55 1003.5
20200606081520 18 203 1.6 3.2 0.00 0.00 0.00 57 1003.5
20200606080519 18 222 3.2 6.4 0.00 0.00 0.00 56 1003.5
20200606075518 18 219 6.4 12.9 0.00 0.00 0.00 55 1003.5
20200606074517 18 185 3.2 9.7 0.00 0.00 0.00 57 1003.5
20200606073519 18 202 4.8 8.0 0.00 0.00 0.00 58 1003.5
20200606072520 18 187 3.2 6.4 0.00 0.00 0.00 58 1003.5
20200606071519 18 201 4.8 6.4 0.00 0.00 0.00 57 1002.9
20200606070551 18 227 6.4 8.0 0.00 0.00 0.00 58 1002.5
20200606065519 18 196 4.8 8.0 0.00 0.00 0.00 58 1002.5
20200606064519 18 211 4.8 9.7 0.00 0.00 0.00 60 1002.5
20200606063520 18 216 4.8 4.8 0.00 0.00 0.00 61 1002.5
20200606062519 18 227 4.8 8.0 0.00 0.00 0.00 61 1002.5
20200606061515 17 220 6.4 9.7 0.00 0.00 0.00 64 1002.5
20200606060520 17 210 4.8 8.0 0.00 0.00 0.00 66 1002.5
20200606055517 17 216 4.8 6.4 0.00 0.00 0.00 67 1001.5
20200606054519 17 230 3.2 6.4 0.00 0.00 0.00 67 1001.5
20200606053519 16 231 6.4 12.9 0.00 0.00 0.00 68 1001.5
20200606052516 16 217 3.2 3.2 0.00 0.00 0.00 69 1001.5
20200606051519 16 220 4.8 9.7 0.00 0.00 0.00 70 1001.5
20200606050519 16 245 1.6 4.8 0.00 0.00 0.00 70 1001.5
20200606045519 16 210 3.2 4.8 0.00 0.00 0.00 70 1001.5
20200606044518 16 235 1.6 3.2 0.00 0.00 0.00 70 1000.8
20200606043520 16 205 1.6 4.8 0.00 0.00 0.00 71 1000.5
20200606042519 15 224 3.2 6.4 0.00 0.00 0.00 71 1000.5
20200606041520 15 215 1.6 3.2 0.00 0.00 0.00 71 1000.5
20200606040519 15 240 0.0 1.6 0.00 0.00 0.00 72 1000.5
20200606035520 15 223 4.8 8.0 0.00 0.00 0.00 71 1000.5
20200606034515 15 203 3.2 4.8 0.00 0.00 0.00 74 1000.5
20200606033519 14 230 3.2 4.8 0.00 0.00 0.00 74 1000.5
20200606032522 14 227 3.2 4.8 0.00 0.00 0.00 74 1000.5
20200606031518 14 212 3.2 8.0 0.00 0.00 0.00 75 1000.5
20200606030518 14 225 4.8 6.4 0.00 0.00 0.00 75 1000.5
20200606025520 14 216 4.8 8.0 0.00 0.00 0.00 76 1000.5
20200606024519 14 216 3.2 4.8 0.00 0.00 0.00 77 1000.5
20200606023520 14 228 1.6 3.2 0.00 0.00 0.00 78 1000.5
20200606022519 14 203 0.0 1.6 0.00 0.00 0.00 79 999.5
20200606021521 14 248 1.6 3.2 0.00 0.00 0.00 79 999.5
20200606020520 14 0.0 0.0 0.00 0.00 0.00 80 999.5
20200606015519 14 221 1.6 4.8 0.00 0.00 0.00 80 999.5
20200606014519 14 0.0 0.0 0.00 0.00 0.00 80 999.5
20200606013519 14 0.0 0.0 0.00 0.00 0.00 80 999.5
20200606012519 14 0.0 0.0 0.00 0.00 0.00 80 999.5
20200606011523 14 0.0 0.0 0.00 0.00 0.00 80 999.5
20200606010526 14 203 0.0 1.6 0.00 0.00 0.00 80 999.5
20200606005517 14 0.0 0.0 0.00 0.00 0.00 80 999.5
20200606004519 14 0.0 0.0 0.00 0.00 0.00 80 999.5
20200606003519 14 248 0.0 1.6 0.00 0.00 0.00 81 999.5
20200606002519 14 248 0.0 1.6 0.00 0.00 0.00 81 998.5
20200606001519 14 0.0 0.0 0.00 0.00 0.00 81 999.1
20200606000526 14 203 0.0 1.6 0.00 0.00 0.00 81 999.5
20200605235519 14 0.0 0.0 0.00 0.00 0.00 81 999.5
20200605234520 14 0.0 0.0 0.00 0.00 0.00 80 999.5
20200605233519 15 0.0 0.0 0.00 0.00 0.00 80 999.5
20200605232516 15 0.0 0.0 0.00 0.00 0.00 80 999.5
20200605231519 15 0.0 0.0 0.00 0.00 0.00 79 999.5
20200605230550 15 0.0 0.0 0.00 0.00 0.00 79 999.5
20200605225519 15 0.0 0.0 0.00 0.00 0.00 79 998.5
20200605224519 15 0.0 0.0 0.00 0.00 0.00 79 998.5
20200605223519 15 225 0.0 3.2 0.00 0.00 0.00 79 998.5
20200605222521 15 0.0 0.0 0.00 0.00 0.00 79 998.5
20200605221519 15 223 0.0 3.2 0.00 0.00 0.00 79 998.5
20200605220516 15 235 0.0 3.2 0.00 0.00 0.00 79 998.5
20200605215519 15 0.0 0.0 0.00 0.00 0.00 79 998.5
20200605214519 15 203 0.0 1.6 0.00 0.00 0.00 79 998.5
20200605213519 15 0.0 0.0 0.00 0.00 0.00 79 998.5
20200605212524 16 0.0 0.0 0.00 0.00 0.00 80 998.5
20200605211520 15 0.0 0.0 0.00 0.00 0.00 80 998.5
20200605210519 15 0.0 0.0 0.00 0.00 0.00 80 998.5
20200605205519 15 0.0 0.0 0.00 0.00 0.00 80 998.5
20200605204520 15 225 0.0 3.2 0.00 0.00 0.00 79 998.5
20200605203519 15 225 0.0 3.2 0.00 0.00 0.00 79 998.5
20200605202519 16 236 1.6 4.8 0.00 0.00 0.00 79 998.5
20200605201519 16 225 1.6 3.2 0.00 0.00 0.00 78 997.8
20200605200519 16 0.0 0.0 0.00 0.00 0.00 77 997.5
20200605195519 16 0.0 0.0 0.00 0.00 0.00 76 997.5
20200605194519 16 233 0.0 3.2 0.00 0.00 0.00 75 997.5
20200605193518 16 216 1.6 3.2 0.00 0.00 0.00 74 997.5
20200605192517 16 225 0.0 1.6 0.00 0.00 0.00 74 997.5
20200605191519 16 209 1.6 4.8 0.00 0.00 0.00 73 997.5
20200605190548 16 211 1.6 4.8 0.00 0.00 0.00 73 997.5
20200605185516 16 225 0.0 1.6 0.00 0.00 0.00 73 997.5